Saratoga Hills, California
Current Conditions -  °F | °C
As of 4:51 PM on Friday 19 Dec 2014 (Local Time) from KVNY Reporting Station
Clear Clear  
Wind Chill: 61°   Ceiling: Unl
Heat Index: 61°   Visibility: 10mi
Dew Point: 47°   Wind: 3mph
Humidity: 60%   Direction: 260°W
Pressure: 30.15"   Gusts: NA
Location:  34.1403°N, 118.762°W
Report Text: KVNY 200051Z 26003KT 10SM CLR 16/08 A3015 RMK AO2 SLP207 T01610083
Loading
Personal Weather Stations






























Interactive Weather Map New forecast layout! Learn more

10-Day Weather Forecast

Advertisements
Track Severe Weather on mobile